sensor_id;sensor_type;location;lat;lon;timestamp;pressure;altitude;pressure_sealevel;temperature;humidity
15308;BME280;7755;52.208;6.964;2023-04-20T00:04:13;101844.56;;;7.76;45.45
15308;BME280;7755;52.208;6.964;2023-04-20T00:08:16;101846.50;;;7.82;45.14
15308;BME280;7755;52.208;6.964;2023-04-20T00:12:52;101834.38;;;7.78;45.55
15308;BME280;7755;52.208;6.964;2023-04-20T00:16:55;101820.78;;;7.71;46.01
15308;BME280;7755;52.208;6.964;2023-04-20T00:20:58;101828.25;;;7.69;46.24
15308;BME280;7755;52.208;6.964;2023-04-20T00:25:00;101813.69;;;7.70;46.59
15308;BME280;7755;52.208;6.964;2023-04-20T00:29:35;101809.72;;;7.66;47.33
15308;BME280;7755;52.208;6.964;2023-04-20T00:33:38;101795.16;;;7.67;47.28
15308;BME280;7755;52.208;6.964;2023-04-20T00:37:41;101785.53;;;7.64;47.95
15308;BME280;7755;52.208;6.964;2023-04-20T00:41:44;101787.41;;;7.64;48.18
15308;BME280;7755;52.208;6.964;2023-04-20T00:50:41;101774.66;;;7.58;49.30
15308;BME280;7755;52.208;6.964;2023-04-20T00:59:41;101758.56;;;7.50;50.17
15308;BME280;7755;52.208;6.964;2023-04-20T01:03:44;101756.03;;;7.48;50.85
15308;BME280;7755;52.208;6.964;2023-04-20T01:12:27;101741.81;;;7.39;52.26
15308;BME280;7755;52.208;6.964;2023-04-20T01:16:30;101724.56;;;7.41;52.64
15308;BME280;7755;52.208;6.964;2023-04-20T01:20:35;101733.50;;;7.41;53.05
15308;BME280;7755;52.208;6.964;2023-04-20T01:25:16;101723.78;;;7.47;53.65
15308;BME280;7755;52.208;6.964;2023-04-20T01:29:19;101718.03;;;7.56;53.96
15308;BME280;7755;52.208;6.964;2023-04-20T01:38:19;101716.25;;;7.70;54.22
15308;BME280;7755;52.208;6.964;2023-04-20T01:42:24;101709.00;;;7.77;54.85
15308;BME280;7755;52.208;6.964;2023-04-20T01:46:26;101702.38;;;7.80;54.61
15308;BME280;7755;52.208;6.964;2023-04-20T01:59:50;101678.06;;;7.86;55.41
15308;BME280;7755;52.208;6.964;2023-04-20T02:04:28;101670.38;;;7.90;56.14
15308;BME280;7755;52.208;6.964;2023-04-20T02:08:32;101672.06;;;7.98;55.83
15308;BME280;7755;52.208;6.964;2023-04-20T02:13:02;101674.19;;;8.02;55.80
15308;BME280;7755;52.208;6.964;2023-04-20T02:17:07;101666.09;;;8.09;55.76
15308;BME280;7755;52.208;6.964;2023-04-20T02:21:10;101657.81;;;8.17;56.34
15308;BME280;7755;52.208;6.964;2023-04-20T02:25:13;101652.38;;;8.17;56.00
15308;BME280;7755;52.208;6.964;2023-04-20T02:29:17;101651.38;;;8.25;56.62
15308;BME280;7755;52.208;6.964;2023-04-20T02:33:22;101651.59;;;8.23;57.36
15308;BME280;7755;52.208;6.964;2023-04-20T02:37:27;101648.84;;;8.16;57.82
15308;BME280;7755;52.208;6.964;2023-04-20T02:41:30;101640.72;;;8.16;59.02
15308;BME280;7755;52.208;6.964;2023-04-20T02:45:34;101634.88;;;8.19;60.00
15308;BME280;7755;52.208;6.964;2023-04-20T02:49:39;101644.91;;;8.26;61.17
15308;BME280;7755;52.208;6.964;2023-04-20T02:53:43;101634.25;;;8.17;63.01
15308;BME280;7755;52.208;6.964;2023-04-20T02:57:53;101637.59;;;8.19;63.55
15308;BME280;7755;52.208;6.964;2023-04-20T03:02:08;101640.34;;;8.26;64.62
15308;BME280;7755;52.208;6.964;2023-04-20T03:06:13;101632.66;;;8.30;64.93
15308;BME280;7755;52.208;6.964;2023-04-20T03:10:22;101640.53;;;8.25;66.48
15308;BME280;7755;52.208;6.964;2023-04-20T03:14:33;101632.19;;;8.26;66.71
15308;BME280;7755;52.208;6.964;2023-04-20T03:18:37;101629.09;;;8.29;66.70
15308;BME280;7755;52.208;6.964;2023-04-20T03:22:42;101625.34;;;8.30;67.20
15308;BME280;7755;52.208;6.964;2023-04-20T03:26:45;101619.69;;;8.25;67.39
15308;BME280;7755;52.208;6.964;2023-04-20T03:30:55;101622.41;;;8.25;67.83
15308;BME280;7755;52.208;6.964;2023-04-20T03:34:58;101617.22;;;8.30;67.15
15308;BME280;7755;52.208;6.964;2023-04-20T03:39:03;101614.09;;;8.27;67.55
15308;BME280;7755;52.208;6.964;2023-04-20T03:43:06;101607.66;;;8.28;67.98
15308;BME280;7755;52.208;6.964;2023-04-20T03:47:09;101613.47;;;8.31;68.27
15308;BME280;7755;52.208;6.964;2023-04-20T03:51:12;101607.44;;;8.29;68.78
15308;BME280;7755;52.208;6.964;2023-04-20T03:55:17;101599.28;;;8.23;69.88
15308;BME280;7755;52.208;6.964;2023-04-20T03:59:26;101600.06;;;8.10;70.42
15308;BME280;7755;52.208;6.964;2023-04-20T04:03:29;101595.69;;;8.09;71.79
15308;BME280;7755;52.208;6.964;2023-04-20T04:07:32;101588.38;;;8.03;72.00
15308;BME280;7755;52.208;6.964;2023-04-20T04:11:37;101586.06;;;8.00;72.64
15308;BME280;7755;52.208;6.964;2023-04-20T04:15:40;101581.25;;;7.95;72.56
15308;BME280;7755;52.208;6.964;2023-04-20T04:19:47;101582.94;;;8.03;72.35
15308;BME280;7755;52.208;6.964;2023-04-20T04:23:50;101576.50;;;8.04;72.15
15308;BME280;7755;52.208;6.964;2023-04-20T04:28:18;101570.88;;;8.05;71.72
15308;BME280;7755;52.208;6.964;2023-04-20T04:32:31;101568.13;;;7.99;71.80
15308;BME280;7755;52.208;6.964;2023-04-20T04:36:36;101567.28;;;7.91;71.89
15308;BME280;7755;52.208;6.964;2023-04-20T04:40:42;101569.81;;;7.93;72.06
15308;BME280;7755;52.208;6.964;2023-04-20T04:44:47;101567.09;;;7.93;72.78
15308;BME280;7755;52.208;6.964;2023-04-20T04:48:59;101578.75;;;7.93;73.70
15308;BME280;7755;52.208;6.964;2023-04-20T04:53:03;101564.78;;;7.90;72.86
15308;BME280;7755;52.208;6.964;2023-04-20T04:57:06;101569.97;;;7.91;73.38
15308;BME280;7755;52.208;6.964;2023-04-20T05:01:10;101568.13;;;7.99;73.01
15308;BME280;7755;52.208;6.964;2023-04-20T05:05:14;101575.88;;;8.02;72.81
15308;BME280;7755;52.208;6.964;2023-04-20T05:09:18;101588.59;;;8.08;72.65
15308;BME280;7755;52.208;6.964;2023-04-20T05:13:22;101575.28;;;8.06;73.45
15308;BME280;7755;52.208;6.964;2023-04-20T05:17:26;101563.78;;;8.04;73.25
15308;BME280;7755;52.208;6.964;2023-04-20T05:21:29;101573.59;;;8.12;73.48
15308;BME280;7755;52.208;6.964;2023-04-20T05:25:33;101589.06;;;8.25;72.83
15308;BME280;7755;52.208;6.964;2023-04-20T05:29:37;101598.69;;;8.27;72.76
15308;BME280;7755;52.208;6.964;2023-04-20T05:33:41;101605.13;;;8.33;72.68
15308;BME280;7755;52.208;6.964;2023-04-20T05:37:44;101601.59;;;8.32;72.73
15308;BME280;7755;52.208;6.964;2023-04-20T05:41:48;101599.31;;;8.29;73.41
15308;BME280;7755;52.208;6.964;2023-04-20T05:45:52;101586.53;;;8.16;73.01
15308;BME280;7755;52.208;6.964;2023-04-20T05:49:57;101584.66;;;8.10;73.66
15308;BME280;7755;52.208;6.964;2023-04-20T05:54:04;101588.56;;;8.01;74.06
15308;BME280;7755;52.208;6.964;2023-04-20T05:58:11;101599.00;;;8.04;74.55
15308;BME280;7755;52.208;6.964;2023-04-20T06:02:49;101597.53;;;8.02;75.11
15308;BME280;7755;52.208;6.964;2023-04-20T06:06:53;101601.91;;;8.03;75.45
15308;BME280;7755;52.208;6.964;2023-04-20T06:10:56;101596.28;;;8.04;75.50
15308;BME280;7755;52.208;6.964;2023-04-20T06:15:00;101592.38;;;8.13;75.61
15308;BME280;7755;52.208;6.964;2023-04-20T06:19:04;101602.41;;;8.26;75.24
15308;BME280;7755;52.208;6.964;2023-04-20T06:23:11;101589.50;;;8.21;75.23
15308;BME280;7755;52.208;6.964;2023-04-20T06:27:14;101600.53;;;8.20;75.34
15308;BME280;7755;52.208;6.964;2023-04-20T06:31:17;101597.63;;;8.28;75.40
15308;BME280;7755;52.208;6.964;2023-04-20T06:35:20;101581.59;;;8.27;75.81
15308;BME280;7755;52.208;6.964;2023-04-20T06:39:31;101588.03;;;8.26;76.74
15308;BME280;7755;52.208;6.964;2023-04-20T06:43:34;101595.19;;;8.40;75.98
15308;BME280;7755;52.208;6.964;2023-04-20T06:47:37;101584.56;;;8.45;75.85
15308;BME280;7755;52.208;6.964;2023-04-20T06:51:39;101592.09;;;8.50;76.57
15308;BME280;7755;52.208;6.964;2023-04-20T06:55:43;101594.00;;;8.56;76.22
15308;BME280;7755;52.208;6.964;2023-04-20T06:59:46;101599.63;;;8.54;76.36
15308;BME280;7755;52.208;6.964;2023-04-20T07:03:50;101599.00;;;8.59;76.44
15308;BME280;7755;52.208;6.964;2023-04-20T07:07:53;101594.41;;;8.66;76.97
15308;BME280;7755;52.208;6.964;2023-04-20T07:11:57;101595.47;;;8.65;77.62
15308;BME280;7755;52.208;6.964;2023-04-20T07:16:02;101589.63;;;8.61;78.68
15308;BME280;7755;52.208;6.964;2023-04-20T07:20:06;101582.72;;;8.59;79.08
15308;BME280;7755;52.208;6.964;2023-04-20T07:24:10;101588.13;;;8.52;79.26
15308;BME280;7755;52.208;6.964;2023-04-20T07:28:14;101578.13;;;8.53;79.95
15308;BME280;7755;52.208;6.964;2023-04-20T07:32:17;101573.13;;;8.56;79.81
15308;BME280;7755;52.208;6.964;2023-04-20T07:36:20;101569.59;;;8.49;80.29
15308;BME280;7755;52.208;6.964;2023-04-20T07:40:23;101560.41;;;8.57;80.23
15308;BME280;7755;52.208;6.964;2023-04-20T07:44:28;101570.66;;;8.68;80.20
15308;BME280;7755;52.208;6.964;2023-04-20T07:48:32;101583.56;;;8.66;80.36
15308;BME280;7755;52.208;6.964;2023-04-20T07:52:35;101590.00;;;8.52;80.77
15308;BME280;7755;52.208;6.964;2023-04-20T07:56:38;101590.00;;;8.52;81.14
15308;BME280;7755;52.208;6.964;2023-04-20T08:00:46;101580.44;;;8.56;80.68
15308;BME280;7755;52.208;6.964;2023-04-20T08:04:49;101585.03;;;8.62;81.47
15308;BME280;7755;52.208;6.964;2023-04-20T08:08:54;101569.19;;;8.79;80.50
15308;BME280;7755;52.208;6.964;2023-04-20T08:12:57;101573.19;;;8.89;80.52
15308;BME280;7755;52.208;6.964;2023-04-20T08:17:01;101570.69;;;9.01;79.12
15308;BME280;7755;52.208;6.964;2023-04-20T08:21:04;101564.41;;;9.07;79.07
15308;BME280;7755;52.208;6.964;2023-04-20T08:25:09;101547.69;;;9.30;78.42
15308;BME280;7755;52.208;6.964;2023-04-20T08:29:12;101553.31;;;9.48;77.25
15308;BME280;7755;52.208;6.964;2023-04-20T08:33:52;101554.94;;;9.56;75.95
15308;BME280;7755;52.208;6.964;2023-04-20T08:37:55;101575.38;;;9.72;75.40
15308;BME280;7755;52.208;6.964;2023-04-20T08:41:57;101558.00;;;9.79;74.55
15308;BME280;7755;52.208;6.964;2023-04-20T08:46:00;101558.84;;;9.73;73.00
15308;BME280;7755;52.208;6.964;2023-04-20T08:50:07;101554.03;;;9.75;73.67
15308;BME280;7755;52.208;6.964;2023-04-20T08:54:11;101554.16;;;10.00;72.89
15308;BME280;7755;52.208;6.964;2023-04-20T08:58:14;101555.16;;;10.12;71.75
15308;BME280;7755;52.208;6.964;2023-04-20T09:02:18;101559.97;;;10.10;72.02
15308;BME280;7755;52.208;6.964;2023-04-20T09:06:23;101561.38;;;10.26;71.32
15308;BME280;7755;52.208;6.964;2023-04-20T09:10:38;101559.22;;;10.35;70.90
15308;BME280;7755;52.208;6.964;2023-04-20T09:14:42;101556.09;;;10.38;69.74
15308;BME280;7755;52.208;6.964;2023-04-20T09:18:50;101550.72;;;10.25;68.75
15308;BME280;7755;52.208;6.964;2023-04-20T09:22:55;101547.41;;;10.16;68.44
15308;BME280;7755;52.208;6.964;2023-04-20T09:26:58;101543.63;;;10.17;69.63
15308;BME280;7755;52.208;6.964;2023-04-20T09:31:03;101535.78;;;10.41;69.02
15308;BME280;7755;52.208;6.964;2023-04-20T09:35:06;101550.00;;;10.99;66.78
15308;BME280;7755;52.208;6.964;2023-04-20T09:39:13;101548.59;;;11.15;64.43
15308;BME280;7755;52.208;6.964;2023-04-20T09:43:18;101541.41;;;11.20;63.42
15308;BME280;7755;52.208;6.964;2023-04-20T09:47:21;101537.88;;;11.20;63.46
15308;BME280;7755;52.208;6.964;2023-04-20T09:51:27;101543.81;;;11.10;63.57
15308;BME280;7755;52.208;6.964;2023-04-20T09:55:31;101531.94;;;11.05;63.85
15308;BME280;7755;52.208;6.964;2023-04-20T09:59:35;101530.53;;;10.96;64.31
15308;BME280;7755;52.208;6.964;2023-04-20T10:03:40;101528.75;;;10.83;64.54
15308;BME280;7755;52.208;6.964;2023-04-20T10:07:43;101529.09;;;10.68;65.22
15308;BME280;7755;52.208;6.964;2023-04-20T10:11:48;101528.22;;;10.74;65.20
15308;BME280;7755;52.208;6.964;2023-04-20T10:15:56;101518.84;;;10.95;64.96
15308;BME280;7755;52.208;6.964;2023-04-20T10:19:59;101515.44;;;11.00;64.13
15308;BME280;7755;52.208;6.964;2023-04-20T10:24:02;101522.09;;;11.04;64.75
15308;BME280;7755;52.208;6.964;2023-04-20T10:28:07;101532.03;;;11.16;63.50
15308;BME280;7755;52.208;6.964;2023-04-20T10:32:20;101522.66;;;11.31;63.36
15308;BME280;7755;52.208;6.964;2023-04-20T10:36:26;101500.44;;;11.89;62.67
15308;BME280;7755;52.208;6.964;2023-04-20T10:40:29;101508.88;;;12.17;60.50
15308;BME280;7755;52.208;6.964;2023-04-20T10:44:34;101505.59;;;11.97;59.51
15308;BME280;7755;52.208;6.964;2023-04-20T10:48:36;101501.81;;;11.80;60.38
15308;BME280;7755;52.208;6.964;2023-04-20T10:52:42;101502.59;;;11.87;59.89
15308;BME280;7755;52.208;6.964;2023-04-20T10:56:47;101507.56;;;11.90;59.56
15308;BME280;7755;52.208;6.964;2023-04-20T11:00:58;101497.56;;;11.84;58.70
15308;BME280;7755;52.208;6.964;2023-04-20T11:05:09;101489.53;;;12.19;58.77
15308;BME280;7755;52.208;6.964;2023-04-20T11:09:18;101493.59;;;12.70;56.85
15308;BME280;7755;52.208;6.964;2023-04-20T11:13:22;101497.25;;;12.64;56.61
15308;BME280;7755;52.208;6.964;2023-04-20T11:17:34;101490.69;;;12.41;56.69
15308;BME280;7755;52.208;6.964;2023-04-20T11:21:40;101491.13;;;12.26;57.27
15308;BME280;7755;52.208;6.964;2023-04-20T11:25:48;101485.31;;;12.23;57.21
15308;BME280;7755;52.208;6.964;2023-04-20T11:29:55;101471.28;;;12.08;57.62
15308;BME280;7755;52.208;6.964;2023-04-20T11:34:00;101484.06;;;12.07;58.11
15308;BME280;7755;52.208;6.964;2023-04-20T11:38:08;101485.31;;;11.93;57.69
15308;BME280;7755;52.208;6.964;2023-04-20T11:42:11;101474.41;;;11.93;57.90
15308;BME280;7755;52.208;6.964;2023-04-20T11:46:15;101481.06;;;11.97;58.78
15308;BME280;7755;52.208;6.964;2023-04-20T11:50:20;101482.59;;;11.93;58.92
15308;BME280;7755;52.208;6.964;2023-04-20T11:54:23;101476.66;;;11.96;59.38
15308;BME280;7755;52.208;6.964;2023-04-20T11:58:27;101477.34;;;11.91;59.30
15308;BME280;7755;52.208;6.964;2023-04-20T12:02:30;101479.63;;;11.94;59.50
15308;BME280;7755;52.208;6.964;2023-04-20T12:06:34;101474.44;;;12.05;58.97
15308;BME280;7755;52.208;6.964;2023-04-20T12:10:37;101482.03;;;12.02;58.00
15308;BME280;7755;52.208;6.964;2023-04-20T12:14:40;101477.34;;;11.91;58.12
15308;BME280;7755;52.208;6.964;2023-04-20T12:18:44;101477.34;;;11.91;58.94
15308;BME280;7755;52.208;6.964;2023-04-20T12:22:49;101481.38;;;11.89;58.92
15308;BME280;7755;52.208;6.964;2023-04-20T12:26:52;101485.63;;;11.85;58.61
15308;BME280;7755;52.208;6.964;2023-04-20T12:30:56;101479.47;;;11.71;57.14
15308;BME280;7755;52.208;6.964;2023-04-20T12:34:58;101481.09;;;11.60;57.42
15308;BME280;7755;52.208;6.964;2023-04-20T12:39:03;101481.00;;;11.48;57.95
15308;BME280;7755;52.208;6.964;2023-04-20T12:43:06;101480.09;;;11.36;57.45
15308;BME280;7755;52.208;6.964;2023-04-20T12:47:09;101477.38;;;11.55;57.86
15308;BME280;7755;52.208;6.964;2023-04-20T12:51:14;101476.75;;;11.89;57.24
15308;BME280;7755;52.208;6.964;2023-04-20T12:55:18;101460.47;;;12.66;55.91
15308;BME280;7755;52.208;6.964;2023-04-20T12:59:21;101463.94;;;12.85;53.25
15308;BME280;7755;52.208;6.964;2023-04-20T13:03:24;101456.13;;;12.89;53.01
15308;BME280;7755;52.208;6.964;2023-04-20T13:07:27;101463.22;;;13.13;52.74
15308;BME280;7755;52.208;6.964;2023-04-20T13:11:31;101449.56;;;13.48;51.44
15308;BME280;7755;52.208;6.964;2023-04-20T13:15:34;101437.22;;;13.74;50.13
15308;BME280;7755;52.208;6.964;2023-04-20T13:19:40;101438.72;;;14.10;49.09
15308;BME280;7755;52.208;6.964;2023-04-20T13:23:44;101425.56;;;14.24;48.75
15308;BME280;7755;52.208;6.964;2023-04-20T13:27:49;101442.69;;;14.03;47.50
15308;BME280;7755;52.208;6.964;2023-04-20T13:31:51;101432.50;;;13.70;47.95
15308;BME280;7755;52.208;6.964;2023-04-20T13:35:54;101435.69;;;13.66;47.89
15308;BME280;7755;52.208;6.964;2023-04-20T13:39:59;101441.66;;;13.63;49.15
15308;BME280;7755;52.208;6.964;2023-04-20T13:44:03;101426.75;;;13.83;49.82
15308;BME280;7755;52.208;6.964;2023-04-20T13:48:08;101433.28;;;13.82;48.71
15308;BME280;7755;52.208;6.964;2023-04-20T13:52:11;101420.19;;;13.84;49.46
15308;BME280;7755;52.208;6.964;2023-04-20T13:56:15;101411.44;;;14.15;48.99
15308;BME280;7755;52.208;6.964;2023-04-20T14:00:57;101405.59;;;14.40;48.35
15308;BME280;7755;52.208;6.964;2023-04-20T14:05:32;101408.31;;;14.24;47.90
15308;BME280;7755;52.208;6.964;2023-04-20T14:09:36;101411.47;;;14.32;47.59
15308;BME280;7755;52.208;6.964;2023-04-20T14:13:39;101404.84;;;14.28;46.83
15308;BME280;7755;52.208;6.964;2023-04-20T14:17:44;101394.06;;;14.38;47.65
15308;BME280;7755;52.208;6.964;2023-04-20T14:21:59;101409.00;;;14.31;46.00
15308;BME280;7755;52.208;6.964;2023-04-20T14:26:01;101404.78;;;13.94;46.01
15308;BME280;7755;52.208;6.964;2023-04-20T14:30:07;101390.97;;;14.01;46.50
15308;BME280;7755;52.208;6.964;2023-04-20T14:34:12;101388.34;;;14.40;46.62
15308;BME280;7755;52.208;6.964;2023-04-20T14:38:15;101374.91;;;14.72;46.08
15308;BME280;7755;52.208;6.964;2023-04-20T14:42:18;101382.59;;;14.75;45.56
15308;BME280;7755;52.208;6.964;2023-04-20T14:46:21;101378.75;;;14.54;45.46
15308;BME280;7755;52.208;6.964;2023-04-20T14:50:26;101390.31;;;14.28;46.28
15308;BME280;7755;52.208;6.964;2023-04-20T14:54:29;101380.63;;;14.03;45.95
15308;BME280;7755;52.208;6.964;2023-04-20T14:58:32;101373.00;;;14.05;46.60
15308;BME280;7755;52.208;6.964;2023-04-20T15:02:37;101371.78;;;14.30;45.56
15308;BME280;7755;52.208;6.964;2023-04-20T15:06:42;101360.19;;;14.23;45.37
15308;BME280;7755;52.208;6.964;2023-04-20T15:10:45;101381.94;;;14.01;46.57
15308;BME280;7755;52.208;6.964;2023-04-20T15:14:49;101361.88;;;13.95;46.63
15308;BME280;7755;52.208;6.964;2023-04-20T15:18:52;101378.88;;;14.14;46.20
15308;BME280;7755;52.208;6.964;2023-04-20T15:22:56;101368.56;;;14.50;45.85
15308;BME280;7755;52.208;6.964;2023-04-20T15:27:00;101353.84;;;14.56;44.74
15308;BME280;7755;52.208;6.964;2023-04-20T15:31:06;101339.88;;;14.52;45.20
15308;BME280;7755;52.208;6.964;2023-04-20T15:35:09;101355.94;;;14.48;44.81
15308;BME280;7755;52.208;6.964;2023-04-20T15:39:14;101357.34;;;14.17;44.57
15308;BME280;7755;52.208;6.964;2023-04-20T15:43:17;101365.06;;;14.04;44.72
15308;BME280;7755;52.208;6.964;2023-04-20T15:47:20;101353.09;;;13.93;44.50
15308;BME280;7755;52.208;6.964;2023-04-20T15:51:23;101350.94;;;13.95;43.40
15308;BME280;7755;52.208;6.964;2023-04-20T15:55:28;101346.38;;;14.01;42.90
15308;BME280;7755;52.208;6.964;2023-04-20T15:59:46;101338.13;;;14.12;42.80
15308;BME280;7755;52.208;6.964;2023-04-20T16:03:49;101337.97;;;14.02;42.83
15308;BME280;7755;52.208;6.964;2023-04-20T16:07:53;101315.50;;;14.00;42.94
15308;BME280;7755;52.208;6.964;2023-04-20T16:11:57;101323.78;;;14.05;43.43
15308;BME280;7755;52.208;6.964;2023-04-20T16:16:05;101331.41;;;14.03;43.69
15308;BME280;7755;52.208;6.964;2023-04-20T16:20:08;101324.28;;;14.19;44.04
15308;BME280;7755;52.208;6.964;2023-04-20T16:24:12;101316.41;;;14.23;43.64
15308;BME280;7755;52.208;6.964;2023-04-20T16:28:16;101325.63;;;14.16;43.57
15308;BME280;7755;52.208;6.964;2023-04-20T16:32:20;101324.03;;;14.04;43.98
15308;BME280;7755;52.208;6.964;2023-04-20T16:36:23;101327.75;;;13.98;44.24
15308;BME280;7755;52.208;6.964;2023-04-20T16:40:33;101321.63;;;13.90;44.45
15308;BME280;7755;52.208;6.964;2023-04-20T16:44:37;101319.88;;;13.84;44.43
15308;BME280;7755;52.208;6.964;2023-04-20T16:48:42;101323.94;;;13.82;44.91
15308;BME280;7755;52.208;6.964;2023-04-20T16:52:56;101325.91;;;13.41;45.99
15308;BME280;7755;52.208;6.964;2023-04-20T16:57:00;101334.16;;;13.29;46.33
15308;BME280;7755;52.208;6.964;2023-04-20T17:01:08;101332.28;;;13.06;47.41
15308;BME280;7755;52.208;6.964;2023-04-20T17:05:13;101329.13;;;12.86;48.23
15308;BME280;7755;52.208;6.964;2023-04-20T17:09:16;101350.28;;;12.79;49.22
15308;BME280;7755;52.208;6.964;2023-04-20T17:13:20;101328.09;;;12.75;50.49
15308;BME280;7755;52.208;6.964;2023-04-20T17:17:24;101343.28;;;12.60;50.66
15308;BME280;7755;52.208;6.964;2023-04-20T17:21:29;101353.03;;;12.44;50.75
15308;BME280;7755;52.208;6.964;2023-04-20T17:25:33;101357.41;;;12.45;50.91
15308;BME280;7755;52.208;6.964;2023-04-20T17:29:37;101363.81;;;12.50;51.46
15308;BME280;7755;52.208;6.964;2023-04-20T17:33:46;101375.91;;;12.31;53.81
15308;BME280;7755;52.208;6.964;2023-04-20T17:37:49;101382.19;;;12.20;55.32
15308;BME280;7755;52.208;6.964;2023-04-20T17:41:53;101385.66;;;11.97;56.82
15308;BME280;7755;52.208;6.964;2023-04-20T17:45:56;101377.31;;;11.80;58.73
15308;BME280;7755;52.208;6.964;2023-04-20T17:50:08;101388.66;;;11.77;60.66
15308;BME280;7755;52.208;6.964;2023-04-20T17:54:21;101390.06;;;11.68;61.97
15308;BME280;7755;52.208;6.964;2023-04-20T17:58:26;101406.50;;;11.61;64.41
15308;BME280;7755;52.208;6.964;2023-04-20T18:02:29;101401.22;;;11.48;67.72
15308;BME280;7755;52.208;6.964;2023-04-20T18:06:34;101407.50;;;11.30;71.68
15308;BME280;7755;52.208;6.964;2023-04-20T18:10:38;101413.72;;;11.19;71.96
15308;BME280;7755;52.208;6.964;2023-04-20T18:14:41;101411.16;;;11.06;74.03
15308;BME280;7755;52.208;6.964;2023-04-20T18:18:45;101413.38;;;10.90;74.00
15308;BME280;7755;52.208;6.964;2023-04-20T18:22:50;101409.06;;;10.83;76.17
15308;BME280;7755;52.208;6.964;2023-04-20T18:26:59;101417.25;;;10.83;77.47
15308;BME280;7755;52.208;6.964;2023-04-20T18:31:12;101434.84;;;10.80;79.50
15308;BME280;7755;52.208;6.964;2023-04-20T18:35:28;101428.25;;;10.70;83.48
15308;BME280;7755;52.208;6.964;2023-04-20T18:39:48;101434.03;;;10.55;86.69
15308;BME280;7755;52.208;6.964;2023-04-20T18:43:52;101432.47;;;10.41;90.36
15308;BME280;7755;52.208;6.964;2023-04-20T18:48:04;101441.44;;;10.16;94.35
15308;BME280;7755;52.208;6.964;2023-04-20T18:52:31;101436.22;;;10.08;96.86
15308;BME280;7755;52.208;6.964;2023-04-20T18:56:42;101442.34;;;10.03;97.12
15308;BME280;7755;52.208;6.964;2023-04-20T19:00:45;101434.41;;;10.02;97.48
15308;BME280;7755;52.208;6.964;2023-04-20T19:04:55;101417.44;;;10.06;98.04
15308;BME280;7755;52.208;6.964;2023-04-20T19:08:59;101414.69;;;10.13;97.86
15308;BME280;7755;52.208;6.964;2023-04-20T19:13:04;101424.13;;;10.10;98.50
15308;BME280;7755;52.208;6.964;2023-04-20T19:17:08;101426.88;;;10.04;97.87
15308;BME280;7755;52.208;6.964;2023-04-20T19:21:12;101431.03;;;10.06;98.31
15308;BME280;7755;52.208;6.964;2023-04-20T19:25:24;101422.84;;;10.13;97.83
15308;BME280;7755;52.208;6.964;2023-04-20T19:29:41;101426.19;;;10.08;97.94
15308;BME280;7755;52.208;6.964;2023-04-20T19:33:54;101401.59;;;10.03;97.58
15308;BME280;7755;52.208;6.964;2023-04-20T19:37:58;101413.91;;;10.06;97.79
15308;BME280;7755;52.208;6.964;2023-04-20T19:42:02;101399.25;;;10.07;97.67
15308;BME280;7755;52.208;6.964;2023-04-20T19:46:07;101406.16;;;10.09;97.65
15308;BME280;7755;52.208;6.964;2023-04-20T19:50:10;101389.41;;;10.12;97.70
15308;BME280;7755;52.208;6.964;2023-04-20T19:54:28;101396.16;;;10.03;97.57
15308;BME280;7755;52.208;6.964;2023-04-20T19:58:34;101390.94;;;10.02;96.77
15308;BME280;7755;52.208;6.964;2023-04-20T20:02:46;101394.97;;;9.93;96.36
15308;BME280;7755;52.208;6.964;2023-04-20T20:06:55;101395.63;;;9.88;97.15
15308;BME280;7755;52.208;6.964;2023-04-20T20:11:06;101385.25;;;9.78;97.29
15308;BME280;7755;52.208;6.964;2023-04-20T20:15:24;101392.78;;;9.76;97.36
15308;BME280;7755;52.208;6.964;2023-04-20T20:19:45;101397.59;;;9.74;97.39
15308;BME280;7755;52.208;6.964;2023-04-20T20:23:56;101388.19;;;9.77;97.59
15308;BME280;7755;52.208;6.964;2023-04-20T20:28:01;101387.78;;;9.73;98.33
15308;BME280;7755;52.208;6.964;2023-04-20T20:32:04;101384.00;;;9.74;98.13
15308;BME280;7755;52.208;6.964;2023-04-20T20:36:10;101391.78;;;9.71;99.33
15308;BME280;7755;52.208;6.964;2023-04-20T20:40:13;101401.53;;;9.78;98.41
15308;BME280;7755;52.208;6.964;2023-04-20T20:44:16;101388.59;;;9.74;99.40
15308;BME280;7755;52.208;6.964;2023-04-20T20:48:21;101381.13;;;9.69;100.00
15308;BME280;7755;52.208;6.964;2023-04-20T20:52:26;101392.19;;;9.68;100.00
15308;BME280;7755;52.208;6.964;2023-04-20T20:56:28;101378.63;;;9.68;100.00
15308;BME280;7755;52.208;6.964;2023-04-20T21:00:32;101364.00;;;9.69;100.00
15308;BME280;7755;52.208;6.964;2023-04-20T21:04:46;101370.91;;;9.65;100.00
15308;BME280;7755;52.208;6.964;2023-04-20T21:18:11;101354.81;;;9.70;100.00
15308;BME280;7755;52.208;6.964;2023-04-20T21:22:33;101360.25;;;9.70;100.00
15308;BME280;7755;52.208;6.964;2023-04-20T21:26:36;101363.13;;;9.75;100.00
15308;BME280;7755;52.208;6.964;2023-04-20T21:30:39;101350.16;;;9.77;100.00
15308;BME280;7755;52.208;6.964;2023-04-20T21:34:43;101351.00;;;9.77;100.00
15308;BME280;7755;52.208;6.964;2023-04-20T21:38:53;101343.06;;;9.76;100.00
15308;BME280;7755;52.208;6.964;2023-04-20T21:42:55;101346.81;;;9.75;100.00
15308;BME280;7755;52.208;6.964;2023-04-20T21:46:58;101367.72;;;9.74;100.00
15308;BME280;7755;52.208;6.964;2023-04-20T21:51:04;101359.34;;;9.82;100.00
15308;BME280;7755;52.208;6.964;2023-04-20T21:55:07;101362.25;;;9.81;100.00
15308;BME280;7755;52.208;6.964;2023-04-20T21:59:10;101343.91;;;9.76;100.00
15308;BME280;7755;52.208;6.964;2023-04-20T22:03:14;101349.34;;;9.76;100.00
15308;BME280;7755;52.208;6.964;2023-04-20T22:07:36;101349.28;;;9.83;100.00
15308;BME280;7755;52.208;6.964;2023-04-20T22:11:39;101330.09;;;9.78;100.00
15308;BME280;7755;52.208;6.964;2023-04-20T22:15:43;101324.69;;;9.78;100.00
15308;BME280;7755;52.208;6.964;2023-04-20T22:20:13;101320.50;;;9.75;100.00
15308;BME280;7755;52.208;6.964;2023-04-20T22:24:17;101320.13;;;9.72;100.00
15308;BME280;7755;52.208;6.964;2023-04-20T22:28:20;101307.16;;;9.74;100.00
15308;BME280;7755;52.208;6.964;2023-04-20T22:32:23;101295.63;;;9.78;100.00